AAL3200 TNCM-KMIA
Flight info
| Callsign | AAL3200 |
|---|---|
| Flight time | 2h 44m |
| Altitude | 32000 |
| Route | MODOR2 JUICE B520 STT RTE6 SJU DCT ACONY Y308 MADIZ VIICE2 |
| Aircraft | B38M/M-SDE1FGHILORVWXY/HB1 |
Departure
| Time | 2026-05-03 22:20 |
|---|---|
| Airport | Princess Juliana International Airport (TNCM) |
Arrival
| Time | 2026-05-04 01:04 |
|---|---|
| Airport | Miami International Airport (KMIA) |
| Time | Latitude | Longitude | Altitude | Speed | Heading |
|---|---|---|---|---|---|
| 2026-05-03 21:18 | 18.04304 | -63.11500 | 31 ft | 0 kts | 351° |
| 2026-05-03 22:11 | 18.04303 | -63.11500 | 31 ft | 2 kts | 351° |
| 2026-05-03 22:11 | 18.04280 | -63.11496 | 31 ft | 4 kts | 351° |
| 2026-05-03 22:12 | 18.04254 | -63.11491 | 31 ft | 3 kts | 351° |
| 2026-05-03 22:12 | 18.04235 | -63.11487 | 31 ft | 4 kts | 333° |
| 2026-05-03 22:12 | 18.04222 | -63.11472 | 31 ft | 4 kts | 267° |
| 2026-05-03 22:12 | 18.04226 | -63.11447 | 31 ft | 3 kts | 261° |
| 2026-05-03 22:13 | 18.04226 | -63.11445 | 31 ft | 2 kts | 261° |
| 2026-05-03 22:14 | 18.04223 | -63.11457 | 31 ft | 3 kts | 256° |
| 2026-05-03 22:14 | 18.04215 | -63.11482 | 31 ft | 5 kts | 238° |
| 2026-05-03 22:14 | 18.04179 | -63.11534 | 31 ft | 12 kts | 231° |
| 2026-05-03 22:15 | 18.04115 | -63.11615 | 31 ft | 16 kts | 231° |
| 2026-05-03 22:15 | 18.04059 | -63.11723 | 30 ft | 18 kts | 259° |
| 2026-05-03 22:15 | 18.04038 | -63.11855 | 30 ft | 18 kts | 264° |
| 2026-05-03 22:15 | 18.03997 | -63.11948 | 30 ft | 14 kts | 234° |
| 2026-05-03 22:16 | 18.03944 | -63.11941 | 30 ft | 9 kts | 86° |
| 2026-05-03 22:16 | 18.03950 | -63.11891 | 30 ft | 1 kts | 81° |
| 2026-05-03 22:16 | 18.03950 | -63.11888 | 30 ft | 0 kts | 81° |
| 2026-05-03 22:19 | 18.03950 | -63.11887 | 30 ft | 4 kts | 81° |
| 2026-05-03 22:19 | 18.03996 | -63.11580 | 30 ft | 79 kts | 81° |
| 2026-05-03 22:19 | 18.04111 | -63.10781 | 30 ft | 140 kts | 81° |
| 2026-05-03 22:19 | 18.04278 | -63.09601 | 118 ft | 181 kts | 83° |
| 2026-05-03 22:20 | 18.04157 | -63.08258 | 779 ft | 184 kts | 107° |
| 2026-05-03 22:20 | 18.03556 | -63.07142 | 1742 ft | 172 kts | 127° |
| 2026-05-03 22:20 | 18.02636 | -63.06284 | 2423 ft | 187 kts | 151° |
| 2026-05-03 22:20 | 18.01300 | -63.05978 | 2879 ft | 217 kts | 181° |
| 2026-05-03 22:21 | 17.99811 | -63.06651 | 3381 ft | 251 kts | 221° |
| 2026-05-03 22:21 | 17.99007 | -63.08266 | 4371 ft | 256 kts | 261° |
| 2026-05-03 22:21 | 17.99191 | -63.10133 | 5111 ft | 271 kts | 290° |
| 2026-05-03 22:21 | 17.99831 | -63.12058 | 5745 ft | 288 kts | 286° |
| 2026-05-03 22:22 | 18.00379 | -63.14115 | 6585 ft | 294 kts | 285° |
| 2026-05-03 22:22 | 18.00912 | -63.16199 | 7506 ft | 296 kts | 285° |
| 2026-05-03 22:22 | 18.01439 | -63.18312 | 8423 ft | 298 kts | 284° |
| 2026-05-03 22:22 | 18.01962 | -63.20426 | 9308 ft | 303 kts | 284° |
| 2026-05-03 22:23 | 18.02479 | -63.22579 | 10207 ft | 303 kts | 284° |
| 2026-05-03 22:23 | 18.03008 | -63.24778 | 10750 ft | 319 kts | 283° |
| 2026-05-03 22:23 | 18.03549 | -63.27105 | 11167 ft | 335 kts | 284° |
| 2026-05-03 22:23 | 18.04115 | -63.29520 | 11720 ft | 345 kts | 284° |
| 2026-05-03 22:24 | 18.04695 | -63.31957 | 12546 ft | 344 kts | 284° |
| 2026-05-03 22:24 | 18.05289 | -63.34414 | 13249 ft | 349 kts | 284° |
| 2026-05-03 22:24 | 18.05887 | -63.36893 | 13969 ft | 351 kts | 284° |
| 2026-05-03 22:24 | 18.06498 | -63.39388 | 14608 ft | 354 kts | 287° |
| 2026-05-03 22:25 | 18.07463 | -63.41769 | 15243 ft | 355 kts | 296° |
| 2026-05-03 22:25 | 18.08530 | -63.44121 | 15848 ft | 358 kts | 295° |
| 2026-05-03 22:25 | 18.09573 | -63.46470 | 16479 ft | 359 kts | 295° |
| 2026-05-03 22:25 | 18.10631 | -63.48854 | 17102 ft | 361 kts | 295° |
| 2026-05-03 22:26 | 18.11699 | -63.51264 | 17680 ft | 364 kts | 295° |
| 2026-05-03 22:26 | 18.12770 | -63.53684 | 18250 ft | 366 kts | 295° |
| 2026-05-03 22:26 | 18.13849 | -63.56121 | 18738 ft | 369 kts | 295° |
| 2026-05-03 22:26 | 18.14934 | -63.58573 | 19197 ft | 372 kts | 295° |
| 2026-05-03 22:27 | 18.16032 | -63.61055 | 19647 ft | 375 kts | 295° |
| 2026-05-03 22:27 | 18.17131 | -63.63543 | 20099 ft | 378 kts | 295° |
| 2026-05-03 22:27 | 18.18244 | -63.66060 | 20533 ft | 381 kts | 295° |
| 2026-05-03 22:27 | 18.19364 | -63.68597 | 20978 ft | 384 kts | 295° |
| 2026-05-03 22:28 | 18.20492 | -63.71153 | 21399 ft | 387 kts | 296° |
| 2026-05-03 22:28 | 18.21632 | -63.73737 | 21806 ft | 390 kts | 296° |
| 2026-05-03 22:28 | 18.22778 | -63.76336 | 22209 ft | 394 kts | 296° |
| 2026-05-03 22:28 | 18.23937 | -63.78965 | 22601 ft | 398 kts | 296° |
| 2026-05-03 22:29 | 18.25105 | -63.81615 | 23005 ft | 401 kts | 296° |
| 2026-05-03 22:29 | 18.26283 | -63.84288 | 23389 ft | 405 kts | 296° |
| 2026-05-03 22:29 | 18.27451 | -63.86940 | 23758 ft | 408 kts | 296° |
| 2026-05-03 22:29 | 18.28661 | -63.89691 | 24102 ft | 410 kts | 296° |
| 2026-05-03 22:30 | 18.29861 | -63.92421 | 24451 ft | 412 kts | 296° |
| 2026-05-03 22:30 | 18.31067 | -63.95165 | 24818 ft | 414 kts | 296° |
| 2026-05-03 22:30 | 18.32264 | -63.97887 | 25165 ft | 416 kts | 296° |
| 2026-05-03 22:30 | 18.33479 | -64.00654 | 25495 ft | 418 kts | 296° |
| 2026-05-03 22:31 | 18.34707 | -64.03449 | 25824 ft | 421 kts | 296° |
| 2026-05-03 22:31 | 18.35937 | -64.06255 | 26162 ft | 423 kts | 296° |
| 2026-05-03 22:31 | 18.37173 | -64.09071 | 26473 ft | 426 kts | 296° |
| 2026-05-03 22:31 | 18.38418 | -64.11911 | 26793 ft | 428 kts | 295° |
| 2026-05-03 22:32 | 18.39670 | -64.14766 | 27123 ft | 430 kts | 295° |
| 2026-05-03 22:32 | 18.40928 | -64.17639 | 27448 ft | 433 kts | 295° |
| 2026-05-03 22:32 | 18.42191 | -64.20525 | 27762 ft | 435 kts | 295° |
| 2026-05-03 22:32 | 18.43460 | -64.23424 | 28073 ft | 437 kts | 295° |
| 2026-05-03 22:33 | 18.44734 | -64.26338 | 28379 ft | 439 kts | 295° |
| 2026-05-03 22:33 | 18.46016 | -64.29271 | 28681 ft | 441 kts | 295° |
| 2026-05-03 22:33 | 18.47302 | -64.32214 | 28980 ft | 444 kts | 295° |
| 2026-05-03 22:33 | 18.48590 | -64.35162 | 29276 ft | 446 kts | 295° |
| 2026-05-03 22:34 | 18.49887 | -64.38136 | 29576 ft | 447 kts | 295° |
| 2026-05-03 22:34 | 18.51190 | -64.41121 | 29874 ft | 449 kts | 295° |
| 2026-05-03 22:34 | 18.52500 | -64.44125 | 30139 ft | 452 kts | 295° |
| 2026-05-03 22:34 | 18.53814 | -64.47140 | 30386 ft | 453 kts | 295° |
| 2026-05-03 22:35 | 18.55128 | -64.50158 | 30656 ft | 454 kts | 295° |
| 2026-05-03 22:35 | 18.56449 | -64.53191 | 30917 ft | 455 kts | 295° |
| 2026-05-03 22:35 | 18.57773 | -64.56235 | 31164 ft | 457 kts | 295° |
| 2026-05-03 22:35 | 18.59091 | -64.59267 | 31406 ft | 458 kts | 295° |
| 2026-05-03 22:36 | 18.60422 | -64.62327 | 31653 ft | 459 kts | 295° |
| 2026-05-03 22:36 | 18.61734 | -64.65348 | 31963 ft | 459 kts | 295° |
| 2026-05-03 22:36 | 18.63066 | -64.68415 | 32063 ft | 460 kts | 295° |
| 2026-05-03 22:37 | 18.65711 | -64.74510 | 32054 ft | 456 kts | 295° |
| 2026-05-03 22:37 | 18.68340 | -64.80575 | 32051 ft | 453 kts | 295° |
| 2026-05-03 22:38 | 18.70957 | -64.86621 | 32053 ft | 454 kts | 294° |
| 2026-05-03 22:38 | 18.73593 | -64.92716 | 32207 ft | 458 kts | 294° |
| 2026-05-03 22:38 | 18.74910 | -64.95762 | 32540 ft | 457 kts | 294° |
| 2026-05-03 22:39 | 18.75785 | -64.97787 | 32730 ft | 457 kts | 294° |
| 2026-05-03 22:39 | 18.77104 | -65.00843 | 33002 ft | 458 kts | 294° |
| 2026-05-03 22:39 | 18.78849 | -65.04885 | 33415 ft | 457 kts | 294° |
| 2026-05-03 22:39 | 18.80158 | -65.07922 | 33837 ft | 454 kts | 294° |
| 2026-05-03 22:40 | 18.81467 | -65.10957 | 34061 ft | 454 kts | 294° |
| 2026-05-03 22:40 | 18.83646 | -65.16016 | 34054 ft | 455 kts | 294° |
| 2026-05-03 22:41 | 18.86256 | -65.22083 | 34064 ft | 451 kts | 294° |
| 2026-05-03 22:41 | 18.88848 | -65.28112 | 34066 ft | 451 kts | 294° |
| 2026-05-03 22:42 | 18.91445 | -65.34161 | 34062 ft | 456 kts | 294° |
| 2026-05-03 22:42 | 18.94063 | -65.40263 | 34055 ft | 456 kts | 294° |
| 2026-05-03 22:43 | 18.96660 | -65.46324 | 34053 ft | 450 kts | 294° |
| 2026-05-03 22:43 | 18.99234 | -65.52339 | 34059 ft | 453 kts | 294° |
| 2026-05-03 22:44 | 19.01823 | -65.58394 | 34062 ft | 452 kts | 294° |
| 2026-05-03 22:44 | 19.04406 | -65.64442 | 34057 ft | 450 kts | 294° |
| 2026-05-03 22:45 | 19.06983 | -65.70483 | 34058 ft | 451 kts | 294° |
| 2026-05-03 22:45 | 19.09571 | -65.76554 | 34050 ft | 456 kts | 294° |
| 2026-05-03 22:46 | 19.12173 | -65.82667 | 34051 ft | 456 kts | 294° |
| 2026-05-03 22:46 | 19.14748 | -65.88722 | 34049 ft | 453 kts | 294° |
| 2026-05-03 22:47 | 19.17326 | -65.94791 | 34047 ft | 451 kts | 294° |
| 2026-05-03 22:47 | 19.19904 | -66.00867 | 34052 ft | 452 kts | 294° |
| 2026-05-03 22:48 | 19.22480 | -66.06942 | 34057 ft | 455 kts | 294° |
| 2026-05-03 22:48 | 19.25072 | -66.13066 | 34050 ft | 455 kts | 294° |
| 2026-05-03 22:49 | 19.27661 | -66.19188 | 34051 ft | 455 kts | 294° |
| 2026-05-03 22:49 | 19.30241 | -66.25293 | 34049 ft | 454 kts | 294° |
| 2026-05-03 22:50 | 19.32803 | -66.31364 | 34043 ft | 453 kts | 294° |
| 2026-05-03 22:50 | 19.35360 | -66.37430 | 34046 ft | 449 kts | 294° |
| 2026-05-03 22:51 | 19.37892 | -66.43442 | 34036 ft | 451 kts | 294° |
| 2026-05-03 22:51 | 19.40461 | -66.49550 | 34046 ft | 454 kts | 294° |
| 2026-05-03 22:52 | 19.43017 | -66.55635 | 34057 ft | 451 kts | 293° |
| 2026-05-03 22:52 | 19.45551 | -66.61671 | 34048 ft | 447 kts | 293° |
| 2026-05-03 22:53 | 19.48079 | -66.67701 | 34044 ft | 450 kts | 293° |
| 2026-05-03 22:53 | 19.50623 | -66.73777 | 34052 ft | 450 kts | 293° |
| 2026-05-03 22:54 | 19.53155 | -66.79829 | 34050 ft | 449 kts | 293° |
| 2026-05-03 22:54 | 19.55677 | -66.85865 | 34030 ft | 449 kts | 293° |
| 2026-05-03 22:55 | 19.58224 | -66.91967 | 34055 ft | 454 kts | 294° |
| 2026-05-03 22:55 | 19.60775 | -66.98085 | 34052 ft | 452 kts | 293° |
| 2026-05-03 22:56 | 19.63292 | -67.04130 | 34047 ft | 451 kts | 293° |
| 2026-05-03 22:56 | 19.65830 | -67.10232 | 34048 ft | 454 kts | 293° |
| 2026-05-03 22:57 | 19.68373 | -67.16353 | 34044 ft | 452 kts | 293° |
| 2026-05-03 22:57 | 19.70914 | -67.22474 | 34045 ft | 454 kts | 293° |
| 2026-05-03 22:58 | 19.73432 | -67.28548 | 34047 ft | 452 kts | 293° |
| 2026-05-03 22:58 | 19.75968 | -67.34671 | 34047 ft | 453 kts | 293° |
| 2026-05-03 22:59 | 19.78497 | -67.40786 | 34049 ft | 452 kts | 293° |
| 2026-05-03 22:59 | 19.81026 | -67.46908 | 34048 ft | 452 kts | 293° |
| 2026-05-03 23:00 | 19.83546 | -67.53014 | 34047 ft | 452 kts | 293° |
| 2026-05-03 23:00 | 19.86068 | -67.59133 | 34050 ft | 451 kts | 293° |
| 2026-05-03 23:01 | 19.88584 | -67.65242 | 34050 ft | 452 kts | 293° |
| 2026-05-03 23:01 | 19.91090 | -67.71337 | 34049 ft | 452 kts | 293° |
| 2026-05-03 23:02 | 19.93599 | -67.77444 | 34045 ft | 452 kts | 293° |
| 2026-05-03 23:02 | 19.96112 | -67.83567 | 34048 ft | 452 kts | 293° |
| 2026-05-03 23:03 | 19.98625 | -67.89700 | 34051 ft | 452 kts | 293° |
| 2026-05-03 23:03 | 20.01120 | -67.95794 | 34047 ft | 452 kts | 293° |
| 2026-05-03 23:04 | 20.03623 | -68.01917 | 34049 ft | 452 kts | 293° |
| 2026-05-03 23:04 | 20.06127 | -68.08046 | 34051 ft | 451 kts | 293° |
| 2026-05-03 23:05 | 20.08629 | -68.14178 | 34053 ft | 451 kts | 293° |
| 2026-05-03 23:05 | 20.11128 | -68.20313 | 34046 ft | 451 kts | 292° |
| 2026-05-03 23:06 | 20.13616 | -68.26425 | 34042 ft | 450 kts | 292° |
| 2026-05-03 23:06 | 20.16100 | -68.32535 | 34048 ft | 450 kts | 292° |
| 2026-05-03 23:07 | 20.18570 | -68.38618 | 34054 ft | 450 kts | 292° |
| 2026-05-03 23:07 | 20.21051 | -68.44735 | 34052 ft | 450 kts | 292° |
| 2026-05-03 23:08 | 20.23529 | -68.50851 | 34046 ft | 450 kts | 292° |
| 2026-05-03 23:08 | 20.26199 | -68.56868 | 34045 ft | 449 kts | 299° |
| 2026-05-03 23:09 | 20.29326 | -68.62632 | 34050 ft | 449 kts | 299° |
| 2026-05-03 23:09 | 20.32465 | -68.68393 | 34047 ft | 449 kts | 299° |
| 2026-05-03 23:10 | 20.35602 | -68.74150 | 34039 ft | 449 kts | 299° |
| 2026-05-03 23:10 | 20.38737 | -68.79909 | 34040 ft | 449 kts | 299° |
| 2026-05-03 23:11 | 20.41850 | -68.85634 | 34044 ft | 449 kts | 299° |
| 2026-05-03 23:11 | 20.44981 | -68.91398 | 34041 ft | 448 kts | 299° |
| 2026-05-03 23:12 | 20.48098 | -68.97142 | 34045 ft | 448 kts | 299° |
| 2026-05-03 23:12 | 20.51219 | -69.02898 | 34045 ft | 448 kts | 299° |
| 2026-05-03 23:13 | 20.54334 | -69.08650 | 34047 ft | 448 kts | 299° |
| 2026-05-03 23:13 | 20.57445 | -69.14400 | 34041 ft | 448 kts | 299° |
| 2026-05-03 23:14 | 20.60556 | -69.20156 | 34042 ft | 447 kts | 299° |
| 2026-05-03 23:14 | 20.63659 | -69.25903 | 34046 ft | 447 kts | 299° |
| 2026-05-03 23:15 | 20.66743 | -69.31621 | 34041 ft | 447 kts | 299° |
| 2026-05-03 23:15 | 20.69842 | -69.37372 | 34044 ft | 447 kts | 299° |
| 2026-05-03 23:16 | 20.72943 | -69.43133 | 34040 ft | 447 kts | 299° |
| 2026-05-03 23:16 | 20.76041 | -69.48894 | 34037 ft | 447 kts | 299° |
| 2026-05-03 23:17 | 20.79136 | -69.54656 | 34030 ft | 447 kts | 299° |
| 2026-05-03 23:17 | 20.82232 | -69.60426 | 34039 ft | 447 kts | 299° |
| 2026-05-03 23:18 | 20.85306 | -69.66158 | 34042 ft | 447 kts | 299° |
| 2026-05-03 23:18 | 20.88396 | -69.71927 | 34046 ft | 447 kts | 299° |
| 2026-05-03 23:19 | 20.91484 | -69.77700 | 34036 ft | 447 kts | 299° |
| 2026-05-03 23:19 | 20.94565 | -69.83467 | 34033 ft | 447 kts | 299° |
| 2026-05-03 23:20 | 20.97644 | -69.89236 | 34043 ft | 447 kts | 299° |
| 2026-05-03 23:20 | 21.00724 | -69.95012 | 34042 ft | 446 kts | 299° |
| 2026-05-03 23:21 | 21.03777 | -70.00743 | 34037 ft | 446 kts | 299° |
| 2026-05-03 23:21 | 21.06852 | -70.06521 | 34039 ft | 446 kts | 299° |
| 2026-05-03 23:22 | 21.11459 | -70.15190 | 34037 ft | 446 kts | 298° |
| 2026-05-03 23:22 | 21.14524 | -70.20966 | 34040 ft | 447 kts | 298° |
| 2026-05-03 23:23 | 21.17593 | -70.26754 | 34040 ft | 447 kts | 298° |
| 2026-05-03 23:23 | 21.20632 | -70.32494 | 34040 ft | 446 kts | 298° |
| 2026-05-03 23:24 | 21.23698 | -70.38288 | 34039 ft | 447 kts | 298° |
| 2026-05-03 23:24 | 21.26759 | -70.44079 | 34037 ft | 447 kts | 298° |
| 2026-05-03 23:25 | 21.29826 | -70.49888 | 34046 ft | 447 kts | 298° |
| 2026-05-03 23:25 | 21.32878 | -70.55677 | 34044 ft | 446 kts | 298° |
| 2026-05-03 23:26 | 21.35933 | -70.61475 | 34037 ft | 446 kts | 298° |
| 2026-05-03 23:26 | 21.38985 | -70.67275 | 34038 ft | 446 kts | 298° |
| 2026-05-03 23:27 | 21.42019 | -70.73046 | 34036 ft | 447 kts | 298° |
| 2026-05-03 23:27 | 21.45071 | -70.78858 | 34039 ft | 446 kts | 298° |
| 2026-05-03 23:28 | 21.48123 | -70.84677 | 34040 ft | 446 kts | 298° |
| 2026-05-03 23:28 | 21.51164 | -70.90480 | 34044 ft | 446 kts | 298° |
| 2026-05-03 23:29 | 21.53694 | -70.95312 | 34040 ft | 446 kts | 298° |
| 2026-05-03 23:29 | 21.56729 | -71.01113 | 34043 ft | 446 kts | 298° |
| 2026-05-03 23:30 | 21.59629 | -71.07010 | 34040 ft | 446 kts | 296° |
| 2026-05-03 23:30 | 21.62503 | -71.12913 | 34042 ft | 446 kts | 296° |
| 2026-05-03 23:31 | 21.65379 | -71.18819 | 34044 ft | 446 kts | 296° |
| 2026-05-03 23:31 | 21.68235 | -71.24690 | 34042 ft | 446 kts | 296° |
| 2026-05-03 23:32 | 21.71102 | -71.30589 | 34045 ft | 445 kts | 296° |
| 2026-05-03 23:32 | 21.73965 | -71.36485 | 34043 ft | 445 kts | 296° |
| 2026-05-03 23:33 | 21.76824 | -71.42382 | 34041 ft | 445 kts | 296° |
| 2026-05-03 23:33 | 21.79685 | -71.48288 | 34046 ft | 445 kts | 296° |
| 2026-05-03 23:34 | 21.82541 | -71.54191 | 34044 ft | 445 kts | 296° |
| 2026-05-03 23:34 | 21.85397 | -71.60100 | 34046 ft | 444 kts | 296° |
| 2026-05-03 23:35 | 21.88245 | -71.66001 | 34046 ft | 444 kts | 296° |
| 2026-05-03 23:35 | 21.91094 | -71.71909 | 34044 ft | 444 kts | 296° |
| 2026-05-03 23:36 | 21.93934 | -71.77807 | 34043 ft | 444 kts | 296° |
| 2026-05-03 23:36 | 21.96778 | -71.83719 | 34046 ft | 444 kts | 296° |
| 2026-05-03 23:37 | 21.99602 | -71.89595 | 34047 ft | 444 kts | 296° |
| 2026-05-03 23:37 | 22.02437 | -71.95501 | 34047 ft | 444 kts | 295° |
| 2026-05-03 23:38 | 22.05264 | -72.01398 | 34047 ft | 444 kts | 295° |
| 2026-05-03 23:38 | 22.08098 | -72.07315 | 34047 ft | 444 kts | 295° |
| 2026-05-03 23:39 | 22.10928 | -72.13232 | 34058 ft | 443 kts | 295° |
| 2026-05-03 23:39 | 22.13748 | -72.19135 | 34045 ft | 443 kts | 295° |
| 2026-05-03 23:40 | 22.16563 | -72.25033 | 34044 ft | 443 kts | 295° |
| 2026-05-03 23:40 | 22.19374 | -72.30930 | 34043 ft | 442 kts | 295° |
| 2026-05-03 23:41 | 22.22183 | -72.36829 | 34044 ft | 442 kts | 295° |
| 2026-05-03 23:41 | 22.24994 | -72.42740 | 34043 ft | 442 kts | 295° |
| 2026-05-03 23:42 | 22.27780 | -72.48606 | 34052 ft | 442 kts | 295° |
| 2026-05-03 23:42 | 22.30584 | -72.54514 | 34049 ft | 442 kts | 295° |
| 2026-05-03 23:43 | 22.33385 | -72.60424 | 34046 ft | 442 kts | 295° |
| 2026-05-03 23:43 | 22.36181 | -72.66332 | 34049 ft | 441 kts | 295° |
| 2026-05-03 23:44 | 22.38967 | -72.72224 | 34047 ft | 441 kts | 294° |
| 2026-05-03 23:44 | 22.41738 | -72.78090 | 34052 ft | 441 kts | 294° |
| 2026-05-03 23:45 | 22.44526 | -72.83997 | 34046 ft | 441 kts | 294° |
| 2026-05-03 23:45 | 22.47312 | -72.89908 | 34054 ft | 441 kts | 294° |
| 2026-05-03 23:46 | 22.50081 | -72.95807 | 34053 ft | 441 kts | 294° |
| 2026-05-03 23:46 | 22.52845 | -73.01695 | 34063 ft | 436 kts | 294° |
| 2026-05-03 23:47 | 22.55571 | -73.07511 | 34056 ft | 436 kts | 294° |
| 2026-05-03 23:47 | 22.58316 | -73.13375 | 34050 ft | 436 kts | 294° |
| 2026-05-03 23:48 | 22.61052 | -73.19224 | 34051 ft | 436 kts | 294° |
| 2026-05-03 23:48 | 22.63795 | -73.25096 | 34060 ft | 436 kts | 294° |
| 2026-05-03 23:49 | 22.66535 | -73.30969 | 34065 ft | 436 kts | 294° |
| 2026-05-03 23:49 | 22.69259 | -73.36814 | 34044 ft | 434 kts | 294° |
| 2026-05-03 23:50 | 22.71516 | -73.41662 | 34047 ft | 434 kts | 294° |
| 2026-05-03 23:50 | 22.74682 | -73.48471 | 34051 ft | 434 kts | 294° |
| 2026-05-03 23:51 | 22.77378 | -73.54277 | 34048 ft | 434 kts | 294° |
| 2026-05-03 23:51 | 22.80090 | -73.60124 | 34054 ft | 434 kts | 294° |
| 2026-05-03 23:52 | 22.82794 | -73.65961 | 34052 ft | 433 kts | 293° |
| 2026-05-03 23:52 | 22.85498 | -73.71803 | 34046 ft | 432 kts | 293° |
| 2026-05-03 23:53 | 22.88192 | -73.77633 | 34048 ft | 432 kts | 293° |
| 2026-05-03 23:53 | 22.90866 | -73.83424 | 34047 ft | 432 kts | 293° |
| 2026-05-03 23:54 | 22.93550 | -73.89245 | 34049 ft | 430 kts | 293° |
| 2026-05-03 23:54 | 22.96219 | -73.95041 | 34052 ft | 430 kts | 293° |
| 2026-05-03 23:55 | 22.98888 | -74.00844 | 34057 ft | 430 kts | 292° |
| 2026-05-03 23:55 | 23.01552 | -74.06642 | 34051 ft | 429 kts | 292° |
| 2026-05-03 23:56 | 23.04214 | -74.12443 | 34053 ft | 429 kts | 292° |
| 2026-05-03 23:56 | 23.06865 | -74.18226 | 34053 ft | 429 kts | 292° |
| 2026-05-03 23:57 | 23.09504 | -74.23991 | 34054 ft | 429 kts | 292° |
| 2026-05-03 23:57 | 23.12152 | -74.29781 | 34054 ft | 429 kts | 292° |
| 2026-05-03 23:58 | 23.14802 | -74.35583 | 34053 ft | 429 kts | 292° |
| 2026-05-03 23:58 | 23.17449 | -74.41384 | 34054 ft | 429 kts | 292° |
| 2026-05-03 23:59 | 23.20100 | -74.47202 | 34053 ft | 429 kts | 292° |
| 2026-05-03 23:59 | 23.22746 | -74.53017 | 34053 ft | 429 kts | 292° |
| 2026-05-04 00:00 | 23.25391 | -74.58836 | 34056 ft | 429 kts | 292° |
| 2026-05-04 00:00 | 23.28028 | -74.64644 | 34056 ft | 429 kts | 292° |
| 2026-05-04 00:01 | 23.30670 | -74.70470 | 34054 ft | 429 kts | 292° |
| 2026-05-04 00:01 | 23.33287 | -74.76246 | 34053 ft | 427 kts | 292° |
| 2026-05-04 00:02 | 23.35912 | -74.82046 | 34054 ft | 427 kts | 292° |
| 2026-05-04 00:02 | 23.38532 | -74.87843 | 34053 ft | 427 kts | 292° |
| 2026-05-04 00:03 | 23.40623 | -74.93849 | 34062 ft | 424 kts | 285° |
| 2026-05-04 00:03 | 23.42494 | -74.99936 | 34054 ft | 424 kts | 285° |
| 2026-05-04 00:04 | 23.44352 | -75.06027 | 34063 ft | 424 kts | 285° |
| 2026-05-04 00:04 | 23.46187 | -75.12057 | 34053 ft | 420 kts | 285° |
| 2026-05-04 00:05 | 23.48018 | -75.18082 | 34055 ft | 420 kts | 285° |
| 2026-05-04 00:05 | 23.49852 | -75.24125 | 34048 ft | 420 kts | 285° |
| 2026-05-04 00:06 | 23.51687 | -75.30180 | 34047 ft | 420 kts | 285° |
| 2026-05-04 00:06 | 23.53518 | -75.36233 | 34048 ft | 420 kts | 285° |
| 2026-05-04 00:07 | 23.55329 | -75.42231 | 34049 ft | 420 kts | 285° |
| 2026-05-04 00:07 | 23.57151 | -75.48272 | 34047 ft | 418 kts | 284° |
| 2026-05-04 00:08 | 23.58968 | -75.54307 | 34048 ft | 419 kts | 284° |
| 2026-05-04 00:08 | 23.60783 | -75.60343 | 34048 ft | 419 kts | 284° |
| 2026-05-04 00:09 | 23.62592 | -75.66371 | 34043 ft | 419 kts | 284° |
| 2026-05-04 00:09 | 23.64401 | -75.72408 | 34045 ft | 418 kts | 284° |
| 2026-05-04 00:10 | 23.66206 | -75.78438 | 34055 ft | 418 kts | 284° |
| 2026-05-04 00:10 | 23.67996 | -75.84431 | 34048 ft | 417 kts | 284° |
| 2026-05-04 00:11 | 23.69794 | -75.90456 | 34048 ft | 417 kts | 284° |
| 2026-05-04 00:11 | 23.71587 | -75.96477 | 34047 ft | 417 kts | 284° |
| 2026-05-04 00:12 | 23.73378 | -76.02502 | 34043 ft | 417 kts | 284° |
| 2026-05-04 00:12 | 23.75170 | -76.08538 | 34069 ft | 417 kts | 284° |
| 2026-05-04 00:13 | 23.76954 | -76.14555 | 34052 ft | 415 kts | 283° |
| 2026-05-04 00:13 | 23.78730 | -76.20557 | 34048 ft | 416 kts | 283° |
| 2026-05-04 00:14 | 23.80509 | -76.26577 | 34043 ft | 416 kts | 283° |
| 2026-05-04 00:14 | 23.82283 | -76.32593 | 34043 ft | 416 kts | 283° |
| 2026-05-04 00:15 | 23.84048 | -76.38582 | 34044 ft | 416 kts | 283° |
| 2026-05-04 00:15 | 23.85817 | -76.44599 | 34045 ft | 416 kts | 283° |
| 2026-05-04 00:16 | 23.87587 | -76.50626 | 34046 ft | 416 kts | 284° |
| 2026-05-04 00:16 | 23.89349 | -76.56639 | 34042 ft | 415 kts | 284° |
| 2026-05-04 00:17 | 23.90813 | -76.61638 | 34044 ft | 416 kts | 283° |
| 2026-05-04 00:17 | 23.92572 | -76.67659 | 34040 ft | 416 kts | 283° |
| 2026-05-04 00:18 | 23.94609 | -76.74641 | 34044 ft | 416 kts | 283° |
| 2026-05-04 00:18 | 23.96080 | -76.79688 | 34039 ft | 416 kts | 283° |
| 2026-05-04 00:19 | 23.97831 | -76.85710 | 34039 ft | 415 kts | 283° |
| 2026-05-04 00:19 | 23.99569 | -76.91695 | 34041 ft | 416 kts | 284° |
| 2026-05-04 00:20 | 24.01315 | -76.97716 | 34037 ft | 416 kts | 284° |
| 2026-05-04 00:20 | 24.03062 | -77.03752 | 34037 ft | 416 kts | 284° |
| 2026-05-04 00:21 | 24.04804 | -77.09778 | 34034 ft | 416 kts | 284° |
| 2026-05-04 00:21 | 24.06545 | -77.15813 | 34034 ft | 416 kts | 284° |
| 2026-05-04 00:22 | 24.08272 | -77.21810 | 34034 ft | 415 kts | 284° |
| 2026-05-04 00:22 | 24.10009 | -77.27847 | 34035 ft | 417 kts | 284° |
| 2026-05-04 00:23 | 24.11744 | -77.33892 | 34034 ft | 417 kts | 284° |
| 2026-05-04 00:23 | 24.13482 | -77.39954 | 34035 ft | 417 kts | 284° |
| 2026-05-04 00:24 | 24.15208 | -77.45987 | 34034 ft | 417 kts | 284° |
| 2026-05-04 00:24 | 24.16937 | -77.52038 | 34035 ft | 417 kts | 284° |
| 2026-05-04 00:25 | 24.18666 | -77.58100 | 34034 ft | 417 kts | 284° |
| 2026-05-04 00:25 | 24.20383 | -77.64125 | 34037 ft | 418 kts | 284° |
| 2026-05-04 00:26 | 24.22113 | -77.70206 | 34027 ft | 418 kts | 284° |
| 2026-05-04 00:26 | 24.23837 | -77.76279 | 34031 ft | 418 kts | 284° |
| 2026-05-04 00:27 | 24.25561 | -77.82356 | 34027 ft | 418 kts | 284° |
| 2026-05-04 00:27 | 24.27661 | -77.88312 | 34014 ft | 424 kts | 299° |
| 2026-05-04 00:28 | 24.30931 | -77.93717 | 34016 ft | 426 kts | 298° |
| 2026-05-04 00:28 | 24.34216 | -77.99108 | 34027 ft | 429 kts | 299° |
| 2026-05-04 00:29 | 24.37545 | -78.04532 | 34025 ft | 429 kts | 299° |
| 2026-05-04 00:29 | 24.40880 | -78.09968 | 34028 ft | 431 kts | 299° |
| 2026-05-04 00:30 | 24.44206 | -78.15393 | 34028 ft | 429 kts | 299° |
| 2026-05-04 00:30 | 24.47520 | -78.20806 | 34024 ft | 429 kts | 299° |
| 2026-05-04 00:31 | 24.50842 | -78.26237 | 34021 ft | 429 kts | 299° |
| 2026-05-04 00:31 | 24.54173 | -78.31689 | 34019 ft | 429 kts | 299° |
| 2026-05-04 00:32 | 24.57482 | -78.37113 | 34036 ft | 427 kts | 298° |
| 2026-05-04 00:32 | 24.60788 | -78.42535 | 34024 ft | 426 kts | 298° |
| 2026-05-04 00:33 | 24.65711 | -78.50621 | 34022 ft | 427 kts | 298° |
| 2026-05-04 00:34 | 24.68971 | -78.55984 | 34021 ft | 427 kts | 298° |
| 2026-05-04 00:34 | 24.72261 | -78.61401 | 34020 ft | 427 kts | 298° |
| 2026-05-04 00:35 | 24.75540 | -78.66808 | 34020 ft | 427 kts | 298° |
| 2026-05-04 00:35 | 24.78828 | -78.72234 | 34017 ft | 427 kts | 298° |
| 2026-05-04 00:36 | 24.82095 | -78.77634 | 34022 ft | 427 kts | 298° |
| 2026-05-04 00:36 | 24.83722 | -78.80322 | 33985 ft | 415 kts | 298° |
| 2026-05-04 00:36 | 24.85298 | -78.82931 | 33798 ft | 404 kts | 298° |
| 2026-05-04 00:36 | 24.86827 | -78.85463 | 33698 ft | 390 kts | 298° |
| 2026-05-04 00:37 | 24.88303 | -78.87907 | 33616 ft | 377 kts | 297° |
| 2026-05-04 00:37 | 24.89754 | -78.90312 | 33185 ft | 383 kts | 298° |
| 2026-05-04 00:37 | 24.91241 | -78.92778 | 32616 ft | 387 kts | 298° |
| 2026-05-04 00:37 | 24.92735 | -78.95257 | 32156 ft | 389 kts | 297° |
| 2026-05-04 00:38 | 24.94224 | -78.97729 | 31674 ft | 386 kts | 297° |
| 2026-05-04 00:38 | 24.95708 | -79.00194 | 31187 ft | 384 kts | 297° |
| 2026-05-04 00:38 | 24.97180 | -79.02639 | 30716 ft | 383 kts | 297° |
| 2026-05-04 00:38 | 24.98644 | -79.05073 | 30247 ft | 381 kts | 297° |
| 2026-05-04 00:39 | 25.00112 | -79.07515 | 29737 ft | 380 kts | 297° |
| 2026-05-04 00:39 | 25.01571 | -79.09941 | 29214 ft | 378 kts | 297° |
| 2026-05-04 00:39 | 25.03010 | -79.12337 | 28714 ft | 376 kts | 297° |
| 2026-05-04 00:39 | 25.04453 | -79.14740 | 28235 ft | 374 kts | 297° |
| 2026-05-04 00:40 | 25.05882 | -79.17123 | 27832 ft | 370 kts | 297° |
| 2026-05-04 00:40 | 25.07278 | -79.19452 | 27408 ft | 367 kts | 297° |
| 2026-05-04 00:40 | 25.08686 | -79.21800 | 26913 ft | 367 kts | 297° |
| 2026-05-04 00:40 | 25.10111 | -79.24179 | 26263 ft | 370 kts | 297° |
| 2026-05-04 00:41 | 25.11544 | -79.26571 | 25635 ft | 375 kts | 298° |
| 2026-05-04 00:41 | 25.12987 | -79.28982 | 25022 ft | 377 kts | 298° |
| 2026-05-04 00:41 | 25.14417 | -79.31373 | 24405 ft | 380 kts | 298° |
| 2026-05-04 00:41 | 25.15886 | -79.33829 | 23759 ft | 384 kts | 298° |
| 2026-05-04 00:42 | 25.17352 | -79.36284 | 23008 ft | 387 kts | 298° |
| 2026-05-04 00:42 | 25.18844 | -79.38782 | 22292 ft | 389 kts | 298° |
| 2026-05-04 00:42 | 25.20333 | -79.41275 | 21657 ft | 390 kts | 298° |
| 2026-05-04 00:42 | 25.21819 | -79.43766 | 21177 ft | 386 kts | 298° |
| 2026-05-04 00:43 | 25.23292 | -79.46237 | 20729 ft | 382 kts | 298° |
| 2026-05-04 00:43 | 25.24742 | -79.48669 | 20296 ft | 378 kts | 298° |
| 2026-05-04 00:43 | 25.26181 | -79.51085 | 19854 ft | 372 kts | 298° |
| 2026-05-04 00:43 | 25.27573 | -79.53423 | 19445 ft | 359 kts | 298° |
| 2026-05-04 00:44 | 25.28914 | -79.55676 | 19043 ft | 347 kts | 298° |
| 2026-05-04 00:44 | 25.30220 | -79.57870 | 18651 ft | 336 kts | 298° |
| 2026-05-04 00:44 | 25.31477 | -79.59985 | 18273 ft | 333 kts | 298° |
| 2026-05-04 00:44 | 25.32772 | -79.62165 | 17803 ft | 341 kts | 298° |
| 2026-05-04 00:45 | 25.34082 | -79.64370 | 17385 ft | 346 kts | 298° |
| 2026-05-04 00:45 | 25.35410 | -79.66606 | 17002 ft | 346 kts | 299° |
| 2026-05-04 00:45 | 25.36709 | -79.68795 | 16620 ft | 345 kts | 299° |
| 2026-05-04 00:45 | 25.38021 | -79.71007 | 16228 ft | 343 kts | 299° |
| 2026-05-04 00:46 | 25.39383 | -79.73203 | 15860 ft | 342 kts | 301° |
| 2026-05-04 00:46 | 25.40748 | -79.75320 | 15511 ft | 341 kts | 301° |
| 2026-05-04 00:46 | 25.42119 | -79.77458 | 15174 ft | 339 kts | 301° |
| 2026-05-04 00:46 | 25.43481 | -79.79586 | 14836 ft | 338 kts | 301° |
| 2026-05-04 00:47 | 25.44831 | -79.81699 | 14504 ft | 337 kts | 301° |
| 2026-05-04 00:47 | 25.46187 | -79.83822 | 14168 ft | 336 kts | 301° |
| 2026-05-04 00:47 | 25.47528 | -79.85924 | 13833 ft | 335 kts | 302° |
| 2026-05-04 00:47 | 25.48862 | -79.88007 | 13424 ft | 334 kts | 302° |
| 2026-05-04 00:48 | 25.50201 | -79.90097 | 13056 ft | 331 kts | 302° |
| 2026-05-04 00:48 | 25.51521 | -79.92157 | 12748 ft | 327 kts | 302° |
| 2026-05-04 00:48 | 25.52828 | -79.94200 | 12432 ft | 322 kts | 302° |
| 2026-05-04 00:48 | 25.54118 | -79.96216 | 12116 ft | 318 kts | 302° |
| 2026-05-04 00:49 | 25.55392 | -79.98208 | 11800 ft | 315 kts | 302° |
| 2026-05-04 00:49 | 25.56653 | -80.00181 | 11481 ft | 312 kts | 302° |
| 2026-05-04 00:49 | 25.57897 | -80.02128 | 11169 ft | 309 kts | 302° |
| 2026-05-04 00:49 | 25.59129 | -80.04056 | 10832 ft | 307 kts | 302° |
| 2026-05-04 00:50 | 25.60346 | -80.05963 | 10458 ft | 306 kts | 302° |
| 2026-05-04 00:50 | 25.61574 | -80.07886 | 10115 ft | 302 kts | 302° |
| 2026-05-04 00:50 | 25.62768 | -80.09759 | 9760 ft | 292 kts | 302° |
| 2026-05-04 00:50 | 25.63922 | -80.11568 | 9395 ft | 282 kts | 302° |
| 2026-05-04 00:51 | 25.65034 | -80.13314 | 9092 ft | 274 kts | 302° |
| 2026-05-04 00:51 | 25.65952 | -80.15095 | 8835 ft | 263 kts | 291° |
| 2026-05-04 00:51 | 25.66713 | -80.16943 | 8598 ft | 263 kts | 292° |
| 2026-05-04 00:51 | 25.67495 | -80.18781 | 8352 ft | 263 kts | 293° |
| 2026-05-04 00:52 | 25.68284 | -80.20607 | 8113 ft | 262 kts | 293° |
| 2026-05-04 00:52 | 25.69056 | -80.22427 | 7899 ft | 261 kts | 292° |
| 2026-05-04 00:52 | 25.69823 | -80.24254 | 7622 ft | 262 kts | 292° |
| 2026-05-04 00:52 | 25.70594 | -80.26080 | 7373 ft | 261 kts | 292° |
| 2026-05-04 00:53 | 25.71135 | -80.27974 | 7087 ft | 257 kts | 272° |
| 2026-05-04 00:53 | 25.71089 | -80.29920 | 6838 ft | 254 kts | 267° |
| 2026-05-04 00:53 | 25.71022 | -80.31861 | 6596 ft | 251 kts | 266° |
| 2026-05-04 00:53 | 25.70946 | -80.33799 | 6359 ft | 253 kts | 266° |
| 2026-05-04 00:54 | 25.70864 | -80.35737 | 6112 ft | 253 kts | 266° |
| 2026-05-04 00:54 | 25.70776 | -80.37692 | 5858 ft | 254 kts | 266° |
| 2026-05-04 00:54 | 25.70686 | -80.39642 | 5606 ft | 253 kts | 266° |
| 2026-05-04 00:54 | 25.70594 | -80.41595 | 5358 ft | 253 kts | 266° |
| 2026-05-04 00:55 | 25.70499 | -80.43546 | 5114 ft | 252 kts | 265° |
| 2026-05-04 00:55 | 25.70357 | -80.45471 | 5030 ft | 249 kts | 264° |
| 2026-05-04 00:55 | 25.70277 | -80.47391 | 5010 ft | 250 kts | 268° |
| 2026-05-04 00:55 | 25.70233 | -80.49319 | 5011 ft | 251 kts | 268° |
| 2026-05-04 00:56 | 25.70191 | -80.51252 | 5002 ft | 251 kts | 268° |
| 2026-05-04 00:56 | 25.70153 | -80.53187 | 5003 ft | 251 kts | 268° |
| 2026-05-04 00:56 | 25.70110 | -80.55123 | 4998 ft | 251 kts | 268° |
| 2026-05-04 00:56 | 25.70208 | -80.57014 | 4977 ft | 251 kts | 285° |
| 2026-05-04 00:57 | 25.71046 | -80.58625 | 5032 ft | 237 kts | 314° |
| 2026-05-04 00:57 | 25.72364 | -80.59615 | 5028 ft | 220 kts | 328° |
| 2026-05-04 00:57 | 25.73656 | -80.60382 | 5017 ft | 201 kts | 329° |
| 2026-05-04 00:57 | 25.74867 | -80.61028 | 4984 ft | 187 kts | 337° |
| 2026-05-04 00:58 | 25.76124 | -80.61382 | 4959 ft | 188 kts | 354° |
| 2026-05-04 00:58 | 25.77390 | -80.61052 | 4905 ft | 192 kts | 30° |
| 2026-05-04 00:58 | 25.78274 | -80.59950 | 4926 ft | 195 kts | 65° |
| 2026-05-04 00:58 | 25.78688 | -80.58510 | 5023 ft | 198 kts | 78° |
| 2026-05-04 00:59 | 25.78892 | -80.56997 | 5055 ft | 199 kts | 85° |
| 2026-05-04 00:59 | 25.79000 | -80.55463 | 5034 ft | 199 kts | 87° |
| 2026-05-04 00:59 | 25.79076 | -80.53932 | 5015 ft | 199 kts | 88° |
| 2026-05-04 00:59 | 25.79142 | -80.52399 | 4998 ft | 199 kts | 88° |
| 2026-05-04 01:00 | 25.79208 | -80.50868 | 5017 ft | 200 kts | 89° |
| 2026-05-04 01:00 | 25.79273 | -80.49322 | 5011 ft | 200 kts | 89° |
| 2026-05-04 01:00 | 25.79337 | -80.47794 | 4935 ft | 201 kts | 88° |
| 2026-05-04 01:00 | 25.79401 | -80.46257 | 4643 ft | 199 kts | 89° |
| 2026-05-04 01:01 | 25.79465 | -80.44728 | 4226 ft | 198 kts | 88° |
| 2026-05-04 01:01 | 25.79528 | -80.43218 | 3833 ft | 191 kts | 88° |
| 2026-05-04 01:01 | 25.79586 | -80.41784 | 3455 ft | 183 kts | 88° |
| 2026-05-04 01:01 | 25.79643 | -80.40410 | 3081 ft | 173 kts | 87° |
| 2026-05-04 01:02 | 25.79698 | -80.39109 | 2721 ft | 165 kts | 88° |
| 2026-05-04 01:02 | 25.79750 | -80.37849 | 2364 ft | 162 kts | 87° |
| 2026-05-04 01:02 | 25.79803 | -80.36593 | 2007 ft | 161 kts | 88° |
| 2026-05-04 01:02 | 25.79853 | -80.35370 | 1661 ft | 158 kts | 87° |
| 2026-05-04 01:03 | 25.79905 | -80.34167 | 1321 ft | 155 kts | 87° |
| 2026-05-04 01:03 | 25.79964 | -80.32961 | 960 ft | 159 kts | 86° |
| 2026-05-04 01:03 | 25.80002 | -80.32156 | 748 ft | 157 kts | 86° |
| 2026-05-04 01:03 | 25.80041 | -80.30950 | 390 ft | 155 kts | 87° |
| 2026-05-04 01:04 | 25.80076 | -80.29762 | 38 ft | 152 kts | 87° |
| 2026-05-04 01:04 | 25.80130 | -80.28698 | 19 ft | 116 kts | 87° |
| 2026-05-04 01:04 | 25.80153 | -80.28106 | 16 ft | 32 kts | 90° |
| 2026-05-04 01:04 | 25.80111 | -80.27980 | 16 ft | 17 kts | 137° |
| 2026-05-04 01:05 | 25.80026 | -80.27908 | 17 ft | 14 kts | 156° |
| 2026-05-04 01:05 | 25.79972 | -80.27847 | 17 ft | 11 kts | 101° |
| 2026-05-04 01:05 | 25.79971 | -80.27754 | 17 ft | 13 kts | 88° |
| 2026-05-04 01:05 | 25.79980 | -80.27651 | 17 ft | 12 kts | 84° |
| 2026-05-04 01:06 | 25.79981 | -80.27631 | 17 ft | 0 kts | 85° |
| 2026-05-04 01:06 | 25.79983 | -80.27616 | 17 ft | 6 kts | 85° |
| 2026-05-04 01:06 | 25.79985 | -80.27576 | 17 ft | 10 kts | 85° |
| 2026-05-04 01:06 | 25.79990 | -80.27490 | 18 ft | 13 kts | 89° |
| 2026-05-04 01:07 | 25.79993 | -80.27349 | 18 ft | 20 kts | 88° |
| 2026-05-04 01:07 | 25.79998 | -80.27202 | 18 ft | 17 kts | 87° |
| 2026-05-04 01:07 | 25.79967 | -80.27074 | 18 ft | 19 kts | 128° |
| 2026-05-04 01:07 | 25.79876 | -80.27010 | 18 ft | 16 kts | 179° |
| 2026-05-04 01:08 | 25.79780 | -80.27067 | 19 ft | 17 kts | 225° |
| 2026-05-04 01:08 | 25.79732 | -80.27190 | 18 ft | 19 kts | 265° |
| 2026-05-04 01:08 | 25.79745 | -80.27280 | 19 ft | 3 kts | 342° |
| 2026-05-04 01:08 | 25.79769 | -80.27298 | 18 ft | 5 kts | 326° |
| 2026-05-04 01:09 | 25.79782 | -80.27308 | 18 ft | 2 kts | 324° |
| 2026-05-04 01:09 | 25.79784 | -80.27309 | 18 ft | 0 kts | 325° |
| 2026-05-04 01:09 | 25.79782 | -80.27308 | 18 ft | 0 kts | 324° |
| 2026-05-04 01:09 | 25.79779 | -80.27305 | 18 ft | 6 kts | 324° |
| 2026-05-04 01:10 | 25.79781 | -80.27307 | 18 ft | 1 kts | 324° |
| 2026-05-04 01:10 | 25.79782 | -80.27308 | 18 ft | 0 kts | 325° |